Time;durP1;ratioP1;P1;durP2;ratioP2;P2;SDS_P1;SDS_P2;PMS_P1;PMS_P2;Temp;Humidity;BMP_temperature;BMP_pressure;BME280_temperature;BME280_humidity;BME280_pressure;Samples;Min_cycle;Max_cycle;Signal;HPM_P1;HPM_P2
2022/03/10 00:01:50;;;;;;;12.00;6.00;;;;;;;1.13;50.13;95088.44;4947253;28;20023;-87
2022/03/10 00:04:15;;;;;;;13.05;6.00;;;;;;;1.06;49.87;95084.25;4947362;28;20073;-87
2022/03/10 00:06:41;;;;;;;11.75;5.13;;;;;;;1.14;48.70;95086.66;4963729;28;20023;-87
2022/03/10 00:09:06;;;;;;;16.77;6.05;;;;;;;1.19;48.72;95086.91;4980384;28;20030;-87
2022/03/10 00:11:31;;;;;;;13.00;5.43;;;;;;;1.13;48.42;95079.91;4962695;28;20146;-87
2022/03/10 00:13:57;;;;;;;12.25;5.32;;;;;;;0.97;49.40;95079.22;4979116;28;20113;-87
2022/03/10 00:16:22;;;;;;;10.75;5.35;;;;;;;0.75;51.32;95075.88;4979322;28;20022;-87
2022/03/10 00:18:48;;;;;;;12.48;5.70;;;;;;;0.54;51.75;95077.53;4979122;28;20027;-87
2022/03/10 00:21:14;;;;;;;10.90;4.95;;;;;;;0.64;50.82;95082.38;4979818;28;20467;-87
2022/03/10 00:23:40;;;;;;;12.32;5.90;;;;;;;0.67;51.28;95078.63;4963148;28;20027;-87
2022/03/10 00:26:05;;;;;;;11.98;5.30;;;;;;;0.36;52.21;95082.31;4978906;28;20027;-87
2022/03/10 00:28:33;;;;;;;14.90;5.70;;;;;;;0.23;52.34;95077.84;4979996;28;20027;-87
2022/03/10 00:30:59;;;;;;;15.85;6.05;;;;;;;0.28;50.61;95084.06;4962517;28;20031;-87
2022/03/10 00:33:24;;;;;;;13.40;5.45;;;;;;;0.38;49.85;95076.00;4962628;28;20391;-87
2022/03/10 00:35:50;;;;;;;15.27;6.03;;;;;;;0.32;50.70;95084.50;4962798;28;20038;-87
2022/03/10 00:38:15;;;;;;;11.95;4.97;;;;;;;0.34;50.03;95090.25;4978761;28;20428;-87
2022/03/10 00:40:40;;;;;;;16.00;6.18;;;;;;;0.36;50.84;95087.47;4978279;28;20042;-87
2022/03/10 00:43:11;;;;;;;14.48;6.35;;;;;;;0.30;50.48;95083.88;4962686;28;20031;-87
2022/03/10 00:45:37;;;;;;;18.02;6.90;;;;;;;0.51;50.14;95085.66;4979620;28;20042;-86
2022/03/10 00:48:03;;;;;;;10.90;5.22;;;;;;;0.68;49.49;95081.00;4978245;28;20436;-87
2022/03/10 00:50:29;;;;;;;17.08;6.43;;;;;;;0.80;49.01;95089.03;4979195;28;20038;-87
2022/03/10 00:52:54;;;;;;;18.55;7.47;;;;;;;0.87;49.39;95080.53;4978396;28;20023;-87
2022/03/10 00:55:20;;;;;;;17.70;7.43;;;;;;;1.02;49.72;95086.38;4978412;28;20026;-87
2022/03/10 00:57:46;;;;;;;17.50;7.75;;;;;;;1.14;49.86;95076.31;4946675;28;20475;-87
2022/03/10 01:00:13;;;;;;;16.08;7.78;;;;;;;0.92;50.72;95073.81;4961881;28;20025;-86
2022/03/10 01:02:39;;;;;;;19.75;8.13;;;;;;;0.46;52.51;95074.28;4961951;28;20065;-86
2022/03/10 01:05:05;;;;;;;17.00;7.50;;;;;;;0.44;53.95;95071.88;4945924;28;20511;-87
2022/03/10 01:07:37;;;;;;;15.77;7.47;;;;;;;0.37;51.57;95069.25;4977881;28;20487;-87
2022/03/10 01:10:04;;;;;;;23.63;9.15;;;;;;;0.54;52.87;95069.81;4961064;28;20062;-87
2022/03/10 01:12:30;;;;;;;22.25;9.10;;;;;;;0.47;53.38;95068.16;4946147;28;20030;-87
2022/03/10 01:14:55;;;;;;;25.35;7.35;;;;;;;0.36;52.29;95064.28;4961882;28;20343;-87
2022/03/10 01:17:21;;;;;;;14.07;6.25;;;;;;;0.21;52.00;95066.94;4946112;28;20030;-87
2022/03/10 01:19:47;;;;;;;14.43;6.35;;;;;;;0.10;51.69;95061.28;4977707;28;20552;-87
2022/03/10 01:22:12;;;;;;;13.85;5.88;;;;;;;0.21;51.04;95062.56;4977902;28;20026;-87
2022/03/10 01:24:39;;;;;;;15.25;5.88;;;;;;;0.33;49.58;95056.91;4961936;28;20037;-87
2022/03/10 01:27:05;;;;;;;11.30;5.28;;;;;;;0.57;48.49;95068.59;4978015;28;20113;-87
2022/03/10 01:29:30;;;;;;;14.40;5.30;;;;;;;0.56;48.78;95057.50;4961639;28;20109;-87
2022/03/10 01:31:56;;;;;;;13.77;5.70;;;;;;;0.72;47.59;95063.38;4945457;28;20042;-87
2022/03/10 01:34:21;;;;;;;11.32;5.13;;;;;;;0.96;46.91;95051.81;4946085;28;20023;-87
2022/03/10 01:36:47;;;;;;;12.20;4.88;;;;;;;1.37;45.80;95052.03;4977543;28;20030;-87
2022/03/10 01:39:12;;;;;;;10.18;4.70;;;;;;;0.94;46.06;95061.53;4977572;28;20026;-88
2022/03/10 01:41:38;;;;;;;11.30;5.57;;;;;;;0.66;47.23;95059.75;4945162;29;20035;-88
2022/03/10 01:44:09;;;;;;;12.50;5.20;;;;;;;0.47;48.53;95057.84;4942319;29;20038;-87
2022/03/10 01:46:34;;;;;;;12.10;4.78;;;;;;;0.32;49.25;95053.56;4958190;29;20050;-88
2022/03/10 01:49:00;;;;;;;9.05;4.65;;;;;;;0.19;49.83;95056.03;4929217;29;20035;-88
2022/03/10 01:51:26;;;;;;;11.20;4.88;;;;;;;0.10;49.40;95050.97;4941670;29;20046;-88
2022/03/10 01:53:52;;;;;;;9.82;4.80;;;;;;;-0.03;50.12;95045.69;4941761;29;20027;-88
2022/03/10 01:56:22;;;;;;;10.52;5.18;;;;;;;0.25;48.95;95048.34;4942189;29;20038;-88
2022/03/10 01:58:49;;;;;;;10.70;5.00;;;;;;;0.26;48.98;95055.09;4942199;29;20027;-88
2022/03/10 02:01:15;;;;;;;12.55;4.75;;;;;;;0.15;48.30;95041.91;4941677;29;20065;-88
2022/03/10 02:03:41;;;;;;;11.05;4.80;;;;;;;0.50;47.92;95053.13;4940794;29;20037;-88
2022/03/10 02:06:08;;;;;;;10.20;4.03;;;;;;;0.56;47.60;95047.19;4957930;29;20031;-88
2022/03/10 02:11:22;;;;;;;8.23;4.18;;;;;;;0.62;47.81;95045.66;4957497;29;20339;-88
2022/03/10 02:13:47;;;;;;;8.77;3.92;;;;;;;0.40;48.03;95043.09;4942182;29;20035;-88
2022/03/10 02:18:58;;;;;;;9.45;4.45;;;;;;;0.36;48.34;95041.88;4958959;29;20026;-87
2022/03/10 02:21:26;;;;;;;11.50;4.30;;;;;;;0.28;49.29;95045.41;4956433;29;20436;-87
2022/03/10 02:23:52;;;;;;;12.00;3.92;;;;;;;0.18;48.94;95046.69;4942113;29;20181;-87
2022/03/10 02:26:17;;;;;;;11.55;4.88;;;;;;;0.38;48.25;95045.06;4942101;29;20504;-87
2022/03/10 02:28:43;;;;;;;10.27;4.57;;;;;;;0.61;47.07;95051.00;4957513;29;20027;-87
2022/03/10 02:31:09;;;;;;;9.82;4.25;;;;;;;0.58;46.70;95046.22;4941481;29;20031;-87
2022/03/10 02:33:35;;;;;;;11.88;4.57;;;;;;;0.59;46.43;95046.03;4941848;29;20352;-87
2022/03/10 02:36:01;;;;;;;11.35;4.55;;;;;;;0.43;46.87;95044.50;4941997;29;20030;-87
2022/03/10 02:38:26;;;;;;;10.30;4.40;;;;;;;0.50;45.61;95044.56;4942070;29;20078;-87
2022/03/10 02:40:52;;;;;;;12.73;4.85;;;;;;;0.56;46.76;95051.53;4941342;29;20027;-87
2022/03/10 02:43:19;;;;;;;10.05;4.60;;;;;;;0.35;47.92;95053.19;4941962;29;20027;-87
2022/03/10 02:45:45;;;;;;;12.75;5.40;;;;;;;0.29;48.80;95051.34;4941578;29;20447;-87
2022/03/10 02:48:13;;;;;;;9.35;4.45;;;;;;;0.02;48.79;95051.13;4941705;29;20090;-87
2022/03/10 02:50:39;;;;;;;10.90;4.65;;;;;;;0.02;48.44;95051.13;4956999;29;20054;-87
2022/03/10 02:53:07;;;;;;;11.60;5.30;;;;;;;-0.04;50.24;95056.97;4957438;29;20031;-87
2022/03/10 02:55:33;;;;;;;12.55;5.15;;;;;;;-0.18;49.71;95058.66;4941568;29;20094;-87
2022/03/10 02:57:58;;;;;;;13.18;5.00;;;;;;;-0.08;49.87;95060.91;4941872;29;20062;-87
2022/03/10 03:00:24;;;;;;;10.43;4.80;;;;;;;-0.14;48.86;95062.44;4941077;29;20028;-87
2022/03/10 03:02:49;;;;;;;10.60;4.78;;;;;;;-0.12;49.64;95060.47;4958725;29;20035;-87
2022/03/10 03:05:16;;;;;;;13.13;5.88;;;;;;;-0.13;50.75;95061.47;4957358;29;20031;-87
2022/03/10 03:07:43;;;;;;;8.77;4.55;;;;;;;-0.30;49.41;95060.88;4941508;29;20126;-86
2022/03/10 03:10:09;;;;;;;15.00;4.82;;;;;;;-0.36;50.32;95065.00;4940442;29;20102;-87
2022/03/10 03:12:34;;;;;;;12.65;5.07;;;;;;;-0.32;50.93;95065.41;4957095;29;20118;-87
2022/03/10 03:15:00;;;;;;;11.05;4.90;;;;;;;-0.35;50.14;95058.06;4957058;29;20039;-87
2022/03/10 03:17:26;;;;;;;11.57;4.60;;;;;;;-0.27;48.55;95057.97;4957241;29;20118;-87
2022/03/10 03:19:52;;;;;;;17.55;5.45;;;;;;;0.10;47.36;95058.72;4956479;29;20389;-87
2022/03/10 03:22:17;;;;;;;13.90;5.13;;;;;;;-0.07;48.14;95063.31;4941115;29;20031;-86
2022/03/10 03:24:45;;;;;;;10.32;4.82;;;;;;;-0.10;48.42;95062.88;4956787;29;20043;-87
2022/03/10 03:27:11;;;;;;;11.63;5.35;;;;;;;0.01;48.58;95056.44;4941368;29;20097;-87
2022/03/10 03:29:37;;;;;;;10.35;5.03;;;;;;;0.36;46.65;95066.84;4958153;29;20075;-87
2022/03/10 03:32:03;;;;;;;9.93;4.82;;;;;;;0.21;47.87;95065.13;4941202;28;20094;-86
2022/03/10 03:34:29;;;;;;;10.98;4.82;;;;;;;0.15;47.82;95065.88;4960461;29;20467;-87
2022/03/10 03:36:54;;;;;;;13.25;4.80;;;;;;;0.15;48.27;95062.53;4960541;29;20027;-87
2022/03/10 03:39:20;;;;;;;12.02;5.28;;;;;;;0.37;47.47;95064.09;4960508;29;20023;-87
2022/03/10 03:41:45;;;;;;;14.18;5.57;;;;;;;0.61;47.28;95063.88;4960069;29;20078;-87
2022/03/10 03:44:11;;;;;;;11.55;5.07;;;;;;;0.67;47.37;95068.31;4961569;29;20109;-87
2022/03/10 03:46:37;;;;;;;10.43;4.95;;;;;;;0.73;48.27;95066.75;4944355;29;20134;-87
2022/03/10 03:49:03;;;;;;;12.65;5.53;;;;;;;0.45;49.36;95070.13;4959965;29;20055;-87
2022/03/10 03:51:28;;;;;;;11.75;5.70;;;;;;;0.53;48.45;95072.56;4960025;29;20117;-88
2022/03/10 03:53:54;;;;;;;11.85;5.35;;;;;;;0.67;48.58;95070.88;4944730;29;20372;-88
2022/03/10 03:56:20;;;;;;;11.93;5.20;;;;;;;0.78;48.21;95070.34;4960402;29;20062;-88
2022/03/10 03:58:48;;;;;;;12.38;5.53;;;;;;;1.28;46.76;95069.47;4944573;29;20500;-87
2022/03/10 04:01:14;;;;;;;15.85;6.57;;;;;;;1.12;46.85;95065.41;4928005;29;20059;-87
2022/03/10 04:03:39;;;;;;;10.75;4.97;;;;;;;0.96;47.18;95058.78;4960068;29;20066;-88
2022/03/10 04:06:05;;;;;;;13.88;5.22;;;;;;;0.98;46.83;95060.16;4960192;29;20463;-87
2022/03/10 04:08:31;;;;;;;12.50;5.53;;;;;;;0.90;47.00;95057.75;4944129;29;20031;-88
2022/03/10 04:10:56;;;;;;;9.95;4.68;;;;;;;0.83;47.32;95056.88;4943606;29;20031;-88
2022/03/10 04:13:22;;;;;;;13.65;5.82;;;;;;;0.74;47.77;95058.03;4960167;29;20031;-88
2022/03/10 04:15:49;;;;;;;15.48;5.43;;;;;;;0.41;48.55;95055.00;4960066;29;20034;-88
2022/03/10 04:18:16;;;;;;;16.08;5.95;;;;;;;0.18;49.30;95055.22;4959825;29;20032;-87
2022/03/10 04:20:42;;;;;;;19.27;5.57;;;;;;;0.24;48.80;95056.25;4960448;29;20075;-88
2022/03/10 04:23:09;;;;;;;13.40;4.97;;;;;;;0.17;48.91;95060.56;4943862;29;20191;-87
2022/03/10 04:25:34;;;;;;;12.32;5.35;;;;;;;0.21;49.30;95059.22;4959296;29;20027;-87
2022/03/10 04:28:00;;;;;;;12.40;5.65;;;;;;;0.19;50.20;95053.44;4959632;29;20082;-87
2022/03/10 04:30:25;;;;;;;16.15;5.82;;;;;;;0.08;49.53;95060.69;4959231;29;20438;-88
2022/03/10 04:32:51;;;;;;;13.48;6.05;;;;;;;-0.11;49.98;95059.50;4943941;29;20031;-87
2022/03/10 04:35:18;;;;;;;13.57;5.88;;;;;;;-0.34;52.39;95060.47;4943439;29;20045;-88
2022/03/10 04:37:46;;;;;;;15.18;5.97;;;;;;;-0.44;51.86;95058.16;4959139;29;20031;-87
2022/03/10 04:40:12;;;;;;;13.05;5.60;;;;;;;-0.28;52.26;95061.53;4942939;29;20030;-87
2022/03/10 04:42:38;;;;;;;13.63;5.50;;;;;;;-0.29;51.52;95065.84;4960485;29;20035;-87
2022/03/10 04:45:06;;;;;;;12.85;5.70;;;;;;;-0.31;52.23;95067.81;4958139;28;20529;-87
2022/03/10 04:47:32;;;;;;;13.43;5.97;;;;;;;-0.34;52.26;95057.88;4959230;29;20379;-87
2022/03/10 04:49:57;;;;;;;12.40;5.25;;;;;;;-0.44;51.60;95062.53;4958640;29;20035;-87
2022/03/10 04:52:27;;;;;;;14.20;5.43;;;;;;;-0.32;50.94;95066.22;4943401;29;20038;-87
2022/03/10 04:54:52;;;;;;;14.13;5.43;;;;;;;-0.18;51.08;95067.16;4959581;29;20491;-87
2022/03/10 04:57:18;;;;;;;10.98;5.10;;;;;;;-0.08;50.09;95071.22;4957777;29;20035;-87
2022/03/10 04:59:43;;;;;;;13.23;5.20;;;;;;;-0.08;50.57;95073.78;4942485;29;20031;-87
2022/03/10 05:02:09;;;;;;;12.55;4.97;;;;;;;-0.35;50.93;95078.66;4942969;29;20032;-87
2022/03/10 05:04:35;;;;;;;11.45;5.07;;;;;;;-0.51;51.03;95079.66;4960097;29;20048;-87
2022/03/10 05:07:00;;;;;;;12.23;4.75;;;;;;;-0.55;50.75;95081.00;4943013;29;20038;-87
2022/03/10 05:09:26;;;;;;;10.68;4.65;;;;;;;-0.27;49.17;95075.19;4959908;29;20042;-87
2022/03/10 05:11:51;;;;;;;9.10;4.35;;;;;;;-0.16;48.90;95074.72;4942798;29;20027;-87
2022/03/10 05:14:17;;;;;;;10.35;3.95;;;;;;;0.08;47.94;95070.19;4959715;29;20031;-87
2022/03/10 05:16:42;;;;;;;11.38;4.70;;;;;;;-0.10;49.39;95079.13;4958699;29;20336;-87
2022/03/10 05:19:09;;;;;;;10.77;4.70;;;;;;;-0.36;50.32;95072.72;4959785;29;20107;-87
2022/03/10 05:21:34;;;;;;;11.50;4.70;;;;;;;-0.37;49.83;95070.31;4958340;29;20027;-87
2022/03/10 05:24:00;;;;;;;10.65;5.25;;;;;;;-0.35;49.15;95076.09;4942815;29;20097;-86
2022/03/10 05:26:26;;;;;;;10.55;4.82;;;;;;;-0.20;50.90;95073.50;4958310;29;20043;-86
2022/03/10 05:28:51;;;;;;;11.60;4.43;;;;;;;-0.37;52.03;95080.63;4958117;29;20464;-86
2022/03/10 05:31:17;;;;;;;15.38;5.28;;;;;;;-0.48;50.17;95082.66;4959227;29;20417;-86
2022/03/10 05:33:42;;;;;;;11.48;4.93;;;;;;;-0.41;49.53;95079.41;4959261;29;20023;-86
2022/03/10 05:36:07;;;;;;;11.48;4.68;;;;;;;-0.16;48.50;95083.22;4958087;29;20123;-86
2022/03/10 05:38:35;;;;;;;12.75;5.22;;;;;;;-0.29;48.71;95085.66;4958603;29;20035;-87
2022/03/10 05:41:01;;;;;;;17.40;4.82;;;;;;;-0.32;49.97;95088.59;4957929;29;20106;-89
2022/03/10 05:43:26;;;;;;;11.90;4.57;;;;;;;-0.31;48.99;95093.56;4958454;29;20389;-87
2022/03/10 05:45:52;;;;;;;14.73;4.97;;;;;;;-0.25;48.70;95094.63;4958962;29;20031;-87
2022/03/10 05:48:17;;;;;;;12.48;5.18;;;;;;;-0.13;50.52;95094.94;4958234;29;20027;-87
2022/03/10 05:50:43;;;;;;;9.68;5.18;;;;;;;-0.11;48.74;95095.56;4957670;29;20054;-87
2022/03/10 05:53:09;;;;;;;12.30;5.35;;;;;;;0.04;48.25;95090.38;4959134;29;20041;-87
2022/03/10 05:55:35;;;;;;;14.32;5.55;;;;;;;0.20;48.25;95096.28;4957963;28;20110;-86
2022/03/10 05:58:00;;;;;;;14.02;5.07;;;;;;;0.16;49.96;95097.63;4957745;29;20031;-86
2022/03/10 06:00:26;;;;;;;13.48;5.68;;;;;;;0.03;50.50;95103.44;4957237;29;20027;-86
2022/03/10 06:02:51;;;;;;;12.15;5.30;;;;;;;-0.02;50.34;95103.97;4941881;29;20165;-87
2022/03/10 06:05:17;;;;;;;11.70;5.00;;;;;;;0.01;50.09;95107.97;4959109;29;20034;-86
2022/03/10 06:07:43;;;;;;;12.52;5.25;;;;;;;0.08;49.46;95098.53;4957654;29;20058;-87
2022/03/10 06:10:08;;;;;;;14.38;5.60;;;;;;;0.12;49.06;95103.13;4957648;29;20047;-86
2022/03/10 06:12:34;;;;;;;13.30;5.43;;;;;;;0.11;50.79;95104.09;4958116;29;20110;-86
2022/03/10 06:15:02;;;;;;;14.30;6.70;;;;;;;0.29;51.28;95110.66;4957770;29;20039;-87
2022/03/10 06:17:29;;;;;;;12.05;5.00;;;;;;;0.48;52.30;95108.41;4959255;29;20038;-86
2022/03/10 06:19:55;;;;;;;16.48;5.80;;;;;;;0.58;50.24;95108.09;4957087;29;20023;-86
2022/03/10 06:22:22;;;;;;;15.68;5.70;;;;;;;0.74;49.14;95110.41;4957465;29;20082;-86
2022/03/10 06:24:48;;;;;;;14.45;5.00;;;;;;;0.94;48.95;95113.13;4957451;29;20033;-86
2022/03/10 06:27:14;;;;;;;11.50;5.13;;;;;;;1.17;48.72;95116.47;4941405;29;20027;-86
2022/03/10 06:29:41;;;;;;;11.60;5.05;;;;;;;1.24;47.69;95123.25;4956948;29;20104;-87
2022/03/10 06:32:06;;;;;;;12.70;5.55;;;;;;;1.22;48.01;95125.22;4941532;29;20027;-87
2022/03/10 06:34:32;;;;;;;11.65;4.72;;;;;;;1.22;48.27;95122.66;4941521;29;20031;-87
2022/03/10 06:36:57;;;;;;;15.60;5.68;;;;;;;1.52;46.58;95121.63;4958673;29;20428;-86
2022/03/10 06:39:23;;;;;;;10.35;4.72;;;;;;;1.72;48.54;95121.69;4957260;29;20031;-86
2022/03/10 06:41:49;;;;;;;11.43;5.28;;;;;;;1.67;49.50;95121.50;4957040;29;20035;-86
2022/03/10 06:44:15;;;;;;;11.60;5.40;;;;;;;1.64;49.90;95117.50;4957087;29;20039;-85
2022/03/10 06:46:40;;;;;;;10.85;5.13;;;;;;;1.68;50.27;95125.66;4958249;29;20113;-86
2022/03/10 06:49:06;;;;;;;12.13;5.47;;;;;;;1.66;49.95;95125.06;4957140;29;20032;-86
2022/03/10 06:51:31;;;;;;;13.68;5.07;;;;;;;1.64;49.68;95129.63;4941344;29;20035;-86
2022/03/10 06:53:57;;;;;;;12.23;5.35;;;;;;;1.65;50.02;95119.13;4941591;29;20034;-86
2022/03/10 06:56:23;;;;;;;12.35;5.65;;;;;;;1.73;50.35;95122.50;4957643;29;20345;-86
2022/03/10 06:58:48;;;;;;;11.40;5.30;;;;;;;1.71;50.57;95114.94;4957127;29;20039;-86
2022/03/10 07:01:14;;;;;;;11.70;5.13;;;;;;;1.71;50.72;95117.53;4957169;29;20085;-86
2022/03/10 07:03:39;;;;;;;12.27;5.30;;;;;;;1.95;49.98;95121.41;4957011;29;20024;-86
2022/03/10 07:06:05;;;;;;;13.77;5.50;;;;;;;2.15;50.88;95122.44;4941627;29;20039;-86
2022/03/10 07:08:33;;;;;;;11.27;5.28;;;;;;;2.17;51.42;95125.66;4959381;28;20348;-85
2022/03/10 07:10:59;;;;;;;12.43;4.93;;;;;;;2.22;52.68;95121.47;4960295;29;20348;-86
2022/03/10 07:13:24;;;;;;;10.38;5.05;;;;;;;2.19;52.32;95121.06;4944689;29;20034;-86
2022/03/10 07:15:50;;;;;;;12.35;4.43;;;;;;;2.22;51.13;95133.59;4961196;29;20384;-86
2022/03/10 07:18:15;;;;;;;14.35;5.05;;;;;;;2.40;51.87;95120.91;4960659;29;20030;-86
2022/03/10 07:20:40;;;;;;;14.13;5.45;;;;;;;2.54;52.76;95126.09;4944403;29;20459;-86
2022/03/10 07:23:06;;;;;;;13.00;5.82;;;;;;;2.62;51.38;95131.09;4945016;29;20023;-86
2022/03/10 07:25:31;;;;;;;12.40;5.72;;;;;;;2.55;48.95;95127.69;4945052;29;20063;-86
2022/03/10 07:27:57;;;;;;;12.75;5.40;;;;;;;2.57;48.39;95132.66;4960491;29;20031;-86
2022/03/10 07:30:22;;;;;;;11.60;5.13;;;;;;;2.58;48.39;95137.63;4959944;29;20038;-86
2022/03/10 07:32:48;;;;;;;12.80;4.80;;;;;;;2.63;48.36;95135.25;4944585;29;20074;-86
2022/03/10 07:35:14;;;;;;;9.60;4.65;;;;;;;2.74;48.72;95135.69;4944586;29;20034;-86
2022/03/10 07:37:39;;;;;;;12.15;5.32;;;;;;;2.86;48.93;95131.47;4960236;29;20080;-86
2022/03/10 07:40:05;;;;;;;11.98;5.47;;;;;;;3.40;49.43;95141.78;4944101;29;20023;-85
2022/03/10 07:42:30;;;;;;;11.07;4.63;;;;;;;3.30;49.66;95141.41;4960168;29;20129;-86
2022/03/10 07:44:56;;;;;;;9.95;5.10;;;;;;;3.32;50.47;95142.03;4960464;29;20061;-86
2022/03/10 07:47:21;;;;;;;10.85;4.78;;;;;;;3.57;49.93;95151.72;4960132;29;20027;-86
2022/03/10 07:49:47;;;;;;;10.80;5.25;;;;;;;3.57;50.44;95147.34;4943807;29;20421;-86
2022/03/10 07:52:12;;;;;;;10.20;4.88;;;;;;;3.65;49.53;95149.69;4961188;29;20034;-86
2022/03/10 07:54:38;;;;;;;12.48;5.13;;;;;;;3.64;49.73;95155.09;4944274;29;20352;-86
2022/03/10 07:57:04;;;;;;;12.80;5.18;;;;;;;3.77;47.36;95152.47;4944187;29;20027;-86
2022/03/10 07:59:29;;;;;;;11.15;5.18;;;;;;;3.83;45.73;95145.66;4959823;29;20030;-86
2022/03/10 08:01:55;;;;;;;13.68;5.22;;;;;;;3.88;44.80;95142.47;4943574;29;20034;-86
2022/03/10 08:04:21;;;;;;;10.57;4.50;;;;;;;3.90;46.12;95140.47;4960005;29;20038;-86
2022/03/10 08:06:46;;;;;;;11.25;5.10;;;;;;;3.91;48.84;95142.06;4943972;29;20450;-86
2022/03/10 08:09:12;;;;;;;11.50;4.80;;;;;;;3.98;46.28;95139.44;4943872;29;20023;-86
2022/03/10 08:11:39;;;;;;;11.13;4.47;;;;;;;4.04;44.92;95139.41;4943497;29;20037;-86
2022/03/10 08:14:06;;;;;;;12.40;5.32;;;;;;;4.31;45.43;95135.88;4959671;29;20425;-86
2022/03/10 08:16:32;;;;;;;19.90;5.30;;;;;;;4.32;46.85;95138.28;4959555;29;20027;-86
2022/03/10 08:18:59;;;;;;;12.48;5.50;;;;;;;4.27;46.77;95142.47;4958474;28;20035;-86
2022/03/10 08:21:25;;;;;;;13.90;5.10;;;;;;;4.33;47.84;95131.25;4943204;29;20031;-86
2022/03/10 08:23:50;;;;;;;14.32;5.55;;;;;;;4.49;46.17;95140.34;4959505;29;20433;-86
2022/03/10 08:26:17;;;;;;;12.57;5.95;;;;;;;4.55;46.67;95136.13;4943906;29;20035;-86
2022/03/10 08:28:53;;;;;;;14.27;5.85;;;;;;;4.47;47.43;95140.56;4959301;29;20031;-86
2022/03/10 08:31:19;;;;;;;14.60;5.55;;;;;;;4.53;49.20;95131.16;4943173;29;20456;-86
2022/03/10 08:33:45;;;;;;;11.35;5.70;;;;;;;4.56;48.96;95135.91;4959631;29;20035;-86
2022/03/10 08:36:10;;;;;;;13.23;5.72;;;;;;;4.80;48.30;95130.97;4960459;29;20222;-86
2022/03/10 08:38:36;;;;;;;13.32;6.20;;;;;;;5.05;48.34;95136.16;4960407;29;20027;-86
2022/03/10 08:41:01;;;;;;;14.98;6.10;;;;;;;5.03;48.51;95129.59;4958682;29;20030;-86
2022/03/10 08:43:29;;;;;;;15.27;5.90;;;;;;;5.41;47.41;95133.03;4959169;29;20034;-86
2022/03/10 08:45:55;;;;;;;13.38;5.40;;;;;;;5.35;46.94;95137.28;4958966;29;20127;-86
2022/03/10 08:48:21;;;;;;;14.32;6.75;;;;;;;5.35;46.78;95143.28;4943008;29;20060;-86
2022/03/10 08:50:46;;;;;;;15.23;6.22;;;;;;;5.38;46.40;95139.47;4958439;29;20118;-85
2022/03/10 08:53:12;;;;;;;12.98;6.35;;;;;;;5.64;46.51;95140.97;4960099;29;20031;-86
2022/03/10 08:55:37;;;;;;;15.18;5.80;;;;;;;5.89;48.72;95139.34;4943086;29;20333;-86
2022/03/10 08:58:03;;;;;;;14.10;6.47;;;;;;;5.92;47.31;95137.06;4958881;29;20031;-86
2022/03/10 09:00:28;;;;;;;16.17;6.70;;;;;;;6.07;48.64;95134.13;4958393;29;20027;-86
2022/03/10 09:02:54;;;;;;;16.42;6.97;;;;;;;6.40;49.51;95132.13;4942875;29;20028;-86
2022/03/10 09:05:20;;;;;;;20.23;8.80;;;;;;;6.48;48.88;95134.41;4942913;29;20031;-86
2022/03/10 09:07:45;;;;;;;13.18;6.25;;;;;;;6.39;46.56;95132.31;4959842;29;20425;-86
2022/03/10 09:10:11;;;;;;;13.77;6.40;;;;;;;6.45;46.58;95132.25;4942336;29;20031;-86
2022/03/10 09:12:37;;;;;;;15.77;6.38;;;;;;;6.55;46.79;95128.31;4958752;29;20035;-86
2022/03/10 09:15:04;;;;;;;14.75;7.38;;;;;;;6.40;45.65;95123.50;4959612;29;20045;-85
2022/03/10 09:17:29;;;;;;;21.35;8.35;;;;;;;6.57;46.97;95114.03;4958414;29;20031;-85
2022/03/10 09:19:55;;;;;;;15.80;7.68;;;;;;;6.69;46.74;95115.88;4958018;29;20078;-86
2022/03/10 09:22:20;;;;;;;20.23;7.65;;;;;;;6.54;46.96;95126.72;4958315;29;20428;-86
2022/03/10 09:24:46;;;;;;;18.90;7.88;;;;;;;6.76;48.18;95119.97;4958411;29;20031;-86
2022/03/10 09:27:11;;;;;;;17.90;8.27;;;;;;;6.81;46.70;95118.50;4958361;29;20424;-86
2022/03/10 09:29:37;;;;;;;15.68;6.75;;;;;;;6.77;47.22;95118.94;4957940;29;20035;-86
2022/03/10 09:32:03;;;;;;;18.73;8.30;;;;;;;6.84;47.54;95115.47;4942192;29;20031;-86
2022/03/10 09:34:28;;;;;;;18.92;8.90;;;;;;;7.02;48.73;95117.16;4959582;29;20416;-86
2022/03/10 09:36:54;;;;;;;17.52;8.63;;;;;;;7.18;48.12;95119.13;4958692;29;20130;-86
2022/03/10 09:39:19;;;;;;;16.92;8.50;;;;;;;7.19;47.31;95120.69;4942579;29;20400;-86
2022/03/10 09:41:45;;;;;;;20.20;9.30;;;;;;;7.06;48.02;95115.72;4941871;29;20078;-86
2022/03/10 09:44:18;;;;;;;20.80;10.32;;;;;;;6.97;46.62;95119.66;4942186;29;20027;-85
2022/03/10 09:46:44;;;;;;;19.13;8.77;;;;;;;7.04;47.60;95122.97;4957923;29;20085;-86
2022/03/10 09:49:10;;;;;;;24.30;10.68;;;;;;;7.20;44.52;95116.25;4942066;29;20336;-86
2022/03/10 09:51:35;;;;;;;30.65;11.43;;;;;;;7.59;47.43;95123.59;4957471;29;20038;-86
2022/03/10 09:54:01;;;;;;;26.33;10.95;;;;;;;7.53;47.31;95116.69;4957806;29;20031;-86
2022/03/10 09:56:26;;;;;;;21.20;10.57;;;;;;;7.66;48.01;95121.66;4959015;29;20031;-86
2022/03/10 09:58:52;;;;;;;26.52;10.48;;;;;;;7.62;46.06;95125.78;4957939;29;20166;-85
2022/03/10 10:01:17;;;;;;;20.80;9.35;;;;;;;7.55;45.08;95122.47;4957330;29;20031;-86
2022/03/10 10:03:43;;;;;;;20.55;9.85;;;;;;;7.71;45.42;95121.75;4957693;29;20031;-86
2022/03/10 10:06:08;;;;;;;22.80;9.93;;;;;;;7.87;48.82;95116.84;4942189;29;20388;-86
2022/03/10 10:08:34;;;;;;;23.38;10.25;;;;;;;8.01;46.05;95118.16;4958752;29;20034;-86
2022/03/10 10:11:00;;;;;;;20.67;9.93;;;;;;;8.03;45.54;95113.53;4957207;29;20035;-86
2022/03/10 10:13:40;;;;;;;20.60;9.82;;;;;;;8.14;46.78;95111.09;4941508;29;20066;-86
2022/03/10 10:16:13;;;;;;;21.02;10.15;;;;;;;8.20;45.40;95107.56;4957658;29;20038;-86
2022/03/10 10:18:39;;;;;;;;;;;;;;;8.28;45.45;95103.78;4957919;29;20038;-86
2022/03/10 10:21:05;;;;;;;23.08;10.48;;;;;;;8.21;43.88;95098.72;4957107;29;20309;-86
2022/03/10 10:23:32;;;;;;;24.58;10.43;;;;;;;8.18;42.72;95101.78;4941340;29;20042;-86
2022/03/10 10:26:06;;;;;;;24.05;10.50;;;;;;;8.21;44.73;95098.72;4957475;29;20031;-86
2022/03/10 10:28:40;;;;;;;26.70;10.90;;;;;;;8.28;42.36;95094.13;4941614;29;20118;-85
2022/03/10 10:31:13;;;;;;;29.10;11.90;;;;;;;8.30;45.04;95099.13;4956997;29;20115;-86
2022/03/10 10:33:41;;;;;;;28.70;11.23;;;;;;;8.34;44.11;95095.81;4958492;29;20038;-86
2022/03/10 10:36:24;;;;;;;25.15;10.18;;;;;;;8.21;44.65;95094.28;4957306;29;20511;-85
2022/03/10 10:38:52;;;;;;;22.77;11.40;;;;;;;8.48;44.27;95092.91;4941597;29;20428;-86
2022/03/10 10:41:29;;;;;;;27.20;11.48;;;;;;;8.60;42.79;95093.63;4941090;28;20081;-86
2022/03/10 10:44:07;;;;;;;26.05;11.32;;;;;;;8.67;41.92;95085.66;4960692;29;20027;-85
2022/03/10 10:46:33;;;;;;;23.50;11.02;;;;;;;8.75;41.22;95087.06;4945263;29;20038;-86
2022/03/10 10:49:12;;;;;;;22.38;11.07;;;;;;;8.76;41.31;95083.47;4961147;29;20063;-86
2022/03/10 10:51:48;;;;;;;26.85;11.18;;;;;;;9.08;43.24;95085.50;4960715;29;20034;-85
2022/03/10 10:54:20;;;;;;;24.13;11.10;;;;;;;8.93;44.52;95077.44;4944989;29;20073;-85
2022/03/10 10:57:03;;;;;;;23.13;10.95;;;;;;;9.12;43.66;95076.13;4962176;29;20109;-86
2022/03/10 10:59:34;;;;;;;25.88;11.23;;;;;;;9.05;42.44;95072.91;4961022;29;20038;-86
2022/03/10 11:02:16;;;;;;;29.77;12.63;;;;;;;9.14;43.54;95068.84;4944824;29;20101;-85
2022/03/10 11:04:47;;;;;;;21.83;11.38;;;;;;;9.46;46.06;95060.38;4960960;29;20082;-86
2022/03/10 11:07:13;;;;;;;23.45;11.80;;;;;;;9.52;40.29;95069.06;4960889;29;20034;-85
2022/03/10 11:09:40;;;;;;;22.67;11.20;;;;;;;9.46;38.96;95060.38;4944434;29;20035;-85
2022/03/10 11:12:09;;;;;;;28.17;12.60;;;;;;;9.62;43.74;95052.72;4944956;29;20081;-85
2022/03/10 11:14:34;;;;;;;24.92;11.88;;;;;;;9.74;42.47;95055.22;4960931;29;20077;-85
2022/03/10 11:17:01;;;;;;;25.48;11.40;;;;;;;9.59;41.39;95046.16;4944755;29;20118;-86
2022/03/10 11:19:32;;;;;;;23.92;11.52;;;;;;;9.83;39.85;95045.09;4944857;29;20029;-85
2022/03/10 11:22:29;;;;;;;27.00;12.68;;;;;;;9.89;39.09;95046.72;4960547;29;20047;-85
2022/03/10 11:25:01;;;;;;;30.83;13.52;;;;;;;9.83;38.94;95045.91;4910846;29;20054;-85
2022/03/10 11:27:35;;;;;;;30.05;13.82;;;;;;;10.06;42.12;95049.25;4961914;29;20483;-86
2022/03/10 11:30:02;;;;;;;28.58;12.63;;;;;;;10.00;38.14;95048.41;4944195;29;20039;-85
2022/03/10 11:32:29;;;;;;;30.55;14.00;;;;;;;9.95;37.90;95045.75;4960193;29;20436;-85
2022/03/10 11:34:58;;;;;;;32.28;14.65;;;;;;;9.86;38.68;95045.41;4949730;29;20484;-85